Houlton, Maine
Current Conditions -  °F | °C
As of 6:53 PM on Friday 21 Nov 2014 (Local Time) from KHUL Reporting Station
Clear Clear  
Wind Chill: -13°   Ceiling: Unl
Heat Index: -7°   Visibility: 10mi
Dew Point: -13°   Wind: 10mph
Humidity: 60%   Direction: 280°W
Pressure: 30.07"   Gusts: NA
Location:  46.13°N, 67.84°W
Report Text: KHUL 212353Z AUTO 28009KT 10SM CLR M07/M13 A3007 RMK AO2 SLP192 60000 T10671133 11033 21067 51038
Loading
Personal Weather Stations






























Interactive Weather Map New forecast layout! Learn more

10-Day Weather Forecast

Advertisements
Track Severe Weather on mobile